Time;durP1;ratioP1;P1;durP2;ratioP2;P2;SDS_P1;SDS_P2;PMS_P1;PMS_P2;Temp;Humidity;BMP_temperature;BMP_pressure;BME280_temperature;BME280_humidity;BME280_pressure;Samples;Min_cycle;Max_cycle;Signal;HPM_P1;HPM_P2
2022/09/05 00:02:15;;;;;;;10.35;3.97;;;;;;;21.27;51.58;99354.66;4467211;32;20158;-81
2022/09/05 00:04:59;;;;;;;8.45;3.78;;;;;;;21.26;51.59;99352.94;4467242;32;20092;-81
2022/09/05 00:08:02;;;;;;;8.15;3.60;;;;;;;21.21;51.71;99355.19;4454255;32;20092;-80
2022/09/05 00:10:49;;;;;;;9.52;3.35;;;;;;;21.22;51.49;99359.56;4468296;32;20100;-81
2022/09/05 00:13:21;;;;;;;9.20;3.50;;;;;;;21.18;51.50;99358.97;4467055;32;20122;-81
2022/09/05 00:16:18;;;;;;;8.25;3.53;;;;;;;21.18;51.41;99358.97;4465347;32;20096;-81
2022/09/05 00:18:53;;;;;;;10.00;3.47;;;;;;;21.19;51.34;99352.66;4467889;32;20123;-81
2022/09/05 00:21:37;;;;;;;8.65;3.62;;;;;;;21.12;51.42;99362.22;4468610;32;20129;-80
2022/09/05 00:24:09;;;;;;;7.60;3.12;;;;;;;21.12;51.22;99362.22;4466009;32;20174;-81
2022/09/05 00:26:55;;;;;;;7.47;3.22;;;;;;;21.11;51.33;99365.91;4469126;32;20089;-81
2022/09/05 00:29:30;;;;;;;7.70;3.20;;;;;;;21.12;51.30;99353.34;4469005;32;20511;-80
2022/09/05 00:31:55;;;;;;;8.07;3.40;;;;;;;21.12;51.20;99358.69;4467902;32;20093;-80
2022/09/05 00:34:43;;;;;;;9.13;3.72;;;;;;;21.09;51.17;99348.25;4466959;32;20146;-81
2022/09/05 00:37:09;;;;;;;8.98;3.30;;;;;;;21.11;51.05;99343.59;4468521;32;20135;-81
2022/09/05 00:39:37;;;;;;;10.80;3.67;;;;;;;21.11;50.90;99347.16;4467206;32;20123;-81
2022/09/05 00:42:12;;;;;;;10.65;3.70;;;;;;;21.06;50.99;99344.03;4468761;32;20174;-82
2022/09/05 00:44:50;;;;;;;7.95;3.37;;;;;;;21.09;50.92;99351.75;4469742;32;20164;-83
2022/09/05 00:47:32;;;;;;;8.50;3.67;;;;;;;21.06;50.89;99352.06;4469535;32;20529;-83
2022/09/05 00:50:30;;;;;;;7.82;3.45;;;;;;;21.07;50.79;99342.19;4469186;32;20092;-83
2022/09/05 00:53:05;;;;;;;8.63;3.30;;;;;;;21.07;50.87;99350.22;4469649;32;20178;-83
2022/09/05 00:55:54;;;;;;;7.75;3.37;;;;;;;21.06;50.85;99356.56;4471267;32;20095;-83
2022/09/05 00:58:47;;;;;;;8.88;3.60;;;;;;;21.05;50.88;99350.34;4468712;32;20089;-83
2022/09/05 01:01:30;;;;;;;10.18;3.62;;;;;;;21.01;50.85;99349.81;4457273;32;20081;-83
2022/09/05 01:03:59;;;;;;;8.18;3.30;;;;;;;20.97;50.91;99351.03;4455900;32;20109;-83
2022/09/05 01:06:36;;;;;;;7.32;3.20;;;;;;;20.96;50.88;99348.50;4455714;32;20131;-83
2022/09/05 01:09:08;;;;;;;7.57;3.17;;;;;;;20.92;50.79;99349.75;4457090;32;20120;-83
2022/09/05 01:11:40;;;;;;;9.82;3.25;;;;;;;20.90;50.71;99359.75;4456763;32;20153;-83
2022/09/05 01:14:32;;;;;;;8.60;3.30;;;;;;;20.89;50.50;99358.06;4456763;32;20396;-83
2022/09/05 01:17:17;;;;;;;7.50;3.28;;;;;;;20.89;50.14;99347.34;4455598;32;20117;-83
2022/09/05 01:20:19;;;;;;;8.18;3.22;;;;;;;20.85;50.09;99348.62;4456903;32;20137;-83
2022/09/05 01:23:06;;;;;;;8.68;3.10;;;;;;;20.86;49.97;99348.47;4456902;32;20068;-82
2022/09/05 01:25:48;;;;;;;9.00;3.50;;;;;;;20.87;49.93;99339.44;4456921;32;20124;-82
2022/09/05 01:28:27;;;;;;;9.70;3.20;;;;;;;20.86;49.94;99342.25;4455720;32;20102;-82
2022/09/05 01:31:10;;;;;;;8.73;3.00;;;;;;;20.82;50.04;99341.69;4455544;32;20153;-82
2022/09/05 01:33:45;;;;;;;7.60;3.30;;;;;;;20.79;50.26;99341.97;4456737;32;20531;-82
2022/09/05 01:36:26;;;;;;;7.75;3.22;;;;;;;20.77;50.18;99344.78;4456459;32;20120;-82
2022/09/05 01:39:18;;;;;;;9.07;3.40;;;;;;;20.75;50.22;99338.72;4455511;32;20396;-82
2022/09/05 01:42:00;;;;;;;8.07;3.12;;;;;;;20.74;50.00;99344.19;4455684;32;20092;-81
2022/09/05 01:45:05;;;;;;;8.25;3.15;;;;;;;20.73;49.77;99348.72;4455542;32;20088;-82
2022/09/05 01:48:22;;;;;;;7.55;3.15;;;;;;;20.71;49.69;99341.81;4423676;32;20101;-82
2022/09/05 01:50:58;;;;;;;7.93;3.20;;;;;;;20.74;49.49;99339.66;4393099;32;20533;-82
2022/09/05 01:53:45;;;;;;;8.35;3.37;;;;;;;20.73;49.37;99346.03;4393147;32;20465;-82
2022/09/05 01:56:33;;;;;;;9.35;3.37;;;;;;;20.72;49.34;99341.62;4392820;32;20209;-83
2022/09/05 01:59:17;;;;;;;8.95;3.37;;;;;;;20.71;49.33;99349.84;4393205;32;20232;-83
2022/09/05 02:01:58;;;;;;;9.02;3.05;;;;;;;20.73;49.19;99342.50;4392929;32;20110;-82
2022/09/05 02:04:42;;;;;;;7.07;2.90;;;;;;;20.73;49.16;99350.53;4380178;32;20087;-83
2022/09/05 02:07:19;;;;;;;8.73;3.30;;;;;;;20.73;49.09;99343.34;4393021;32;20570;-83
2022/09/05 02:10:13;;;;;;;10.05;3.30;;;;;;;20.73;48.98;99340.66;4392845;32;20094;-82
2022/09/05 02:12:48;;;;;;;7.12;2.72;;;;;;;20.76;48.89;99336.88;4367803;32;20106;-84
2022/09/05 02:15:27;;;;;;;8.50;3.00;;;;;;;20.77;48.91;99341.25;4392892;32;20086;-84
2022/09/05 02:17:53;;;;;;;;;;;;;;;20.75;48.89;99344.06;4393123;32;20078;-84
2022/09/05 02:20:33;;;;;;;8.32;3.28;;;;;;;20.83;48.67;99338.03;4380270;32;20065;-82
2022/09/05 02:23:06;;;;;;;9.93;3.55;;;;;;;20.77;48.78;99338.56;4426644;32;20472;-81
2022/09/05 02:25:44;;;;;;;8.35;3.50;;;;;;;20.74;48.83;99344.19;4456338;32;20092;-80
2022/09/05 02:28:19;;;;;;;8.73;3.45;;;;;;;20.75;48.85;99345.91;4455148;32;20108;-81
2022/09/05 02:30:53;;;;;;;8.07;3.22;;;;;;;20.69;48.90;99344.59;4455313;32;20131;-81
2022/09/05 02:33:37;;;;;;;8.05;3.28;;;;;;;20.67;48.78;99343.03;4455156;32;20514;-80
2022/09/05 02:36:35;;;;;;;9.48;3.47;;;;;;;20.65;48.74;99345.87;4455077;32;20160;-81
2022/09/05 02:39:14;;;;;;;8.25;3.35;;;;;;;20.58;48.76;99342.81;4452247;32;20151;-82
2022/09/05 02:41:44;;;;;;;9.23;3.60;;;;;;;20.58;48.66;99334.78;4455482;32;20129;-82
2022/09/05 02:44:32;;;;;;;7.93;3.45;;;;;;;20.56;48.58;99343.94;4456507;32;20109;-81
2022/09/05 02:47:05;;;;;;;8.00;3.35;;;;;;;20.56;48.32;99347.47;4455038;32;20503;-81
2022/09/05 02:49:47;;;;;;;9.45;3.40;;;;;;;20.56;48.22;99350.16;4441966;32;20081;-81
2022/09/05 02:52:14;;;;;;;8.20;3.20;;;;;;;20.58;48.07;99350.00;4455046;32;20135;-81
2022/09/05 02:54:43;;;;;;;7.40;3.00;;;;;;;20.57;47.94;99345.63;4455013;32;20112;-81
2022/09/05 02:57:11;;;;;;;7.53;3.17;;;;;;;20.57;47.92;99351.84;4458811;32;20079;-81
2022/09/05 03:00:04;;;;;;;6.87;3.00;;;;;;;20.60;47.80;99348.91;4456184;32;20084;-81
2022/09/05 03:03:11;;;;;;;6.87;3.03;;;;;;;20.52;47.71;99351.41;4456153;32;20127;-81
2022/09/05 03:05:58;;;;;;;6.97;3.30;;;;;;;20.49;47.72;99348.97;4453367;32;20448;-81
2022/09/05 03:08:39;;;;;;;7.10;3.03;;;;;;;20.49;47.78;99350.81;4454806;32;20243;-81
2022/09/05 03:11:42;;;;;;;7.35;3.00;;;;;;;20.48;47.85;99351.81;4456111;32;20459;-81
2022/09/05 03:14:22;;;;;;;8.05;3.10;;;;;;;20.47;47.79;99353.63;4456090;32;20112;-81
2022/09/05 03:17:22;;;;;;;8.30;2.90;;;;;;;20.43;47.78;99352.19;4455332;32;20101;-80
2022/09/05 03:20:07;;;;;;;8.57;3.15;;;;;;;20.47;47.70;99352.78;4441066;32;20089;-79
2022/09/05 03:22:35;;;;;;;9.02;3.17;;;;;;;20.48;47.74;99354.47;4441797;32;20236;-79
2022/09/05 03:25:15;;;;;;;8.20;3.40;;;;;;;20.43;47.77;99353.03;4456612;32;20108;-79
2022/09/05 03:28:11;;;;;;;8.48;3.30;;;;;;;20.42;47.85;99353.19;4447680;32;20211;-79
2022/09/05 03:31:25;;;;;;;7.55;3.12;;;;;;;20.43;47.99;99355.69;4454228;32;20092;-79
2022/09/05 03:34:20;;;;;;;7.70;3.25;;;;;;;20.47;47.86;99358.13;4422190;32;20150;-79
2022/09/05 03:37:10;;;;;;;7.47;3.25;;;;;;;20.47;47.93;99360.81;4422359;32;20106;-80
2022/09/05 03:40:11;;;;;;;8.68;3.28;;;;;;;20.43;48.10;99363.72;4408090;32;20106;-80
2022/09/05 03:43:14;;;;;;;9.18;3.15;;;;;;;20.46;48.15;99367.16;4407044;32;20272;-80
2022/09/05 03:45:52;;;;;;;8.57;3.03;;;;;;;20.45;48.14;99368.97;4407213;32;20445;-80
2022/09/05 03:48:29;;;;;;;8.25;3.40;;;;;;;20.42;48.17;99366.56;4394718;32;20097;-80
2022/09/05 03:51:22;;;;;;;8.82;3.10;;;;;;;20.42;48.15;99372.75;4394528;32;20229;-80
2022/09/05 03:54:14;;;;;;;8.57;3.30;;;;;;;20.45;48.20;99376.16;4406932;32;20090;-81
2022/09/05 03:56:58;;;;;;;7.80;3.30;;;;;;;20.45;48.18;99368.97;4406936;32;20140;-79
2022/09/05 03:59:42;;;;;;;7.57;2.95;;;;;;;20.42;48.39;99383.47;4412351;32;20520;-82
2022/09/05 04:02:10;;;;;;;8.85;2.87;;;;;;;20.43;48.46;99386.97;4422499;32;20110;-82
2022/09/05 04:04:47;;;;;;;8.10;3.28;;;;;;;20.40;48.64;99390.78;4439269;32;20165;-82
2022/09/05 04:07:23;;;;;;;8.15;2.90;;;;;;;20.40;48.65;99387.25;4467863;32;20436;-82
2022/09/05 04:09:52;;;;;;;8.10;3.30;;;;;;;20.43;48.62;99393.16;4456118;32;20456;-82
2022/09/05 04:12:27;;;;;;;9.98;3.30;;;;;;;20.42;48.62;99388.81;4469986;32;20108;-82
2022/09/05 04:15:00;;;;;;;7.57;3.20;;;;;;;20.42;48.61;99393.31;4471152;32;20490;-82
2022/09/05 04:17:35;;;;;;;8.20;3.40;;;;;;;20.44;48.56;99394.03;4469984;32;20123;-82
2022/09/05 04:20:03;;;;;;;8.18;3.25;;;;;;;20.44;48.53;99396.72;4471072;32;20096;-82
2022/09/05 04:23:19;;;;;;;8.63;3.83;;;;;;;20.45;48.52;99398.41;4471072;32;20152;-82
2022/09/05 04:26:01;;;;;;;7.40;3.37;;;;;;;20.53;48.37;99403.97;4470920;32;20111;-83
2022/09/05 04:28:44;;;;;;;9.50;3.03;;;;;;;20.55;48.31;99414.50;4469603;32;20102;-83
2022/09/05 04:31:19;;;;;;;8.55;3.05;;;;;;;20.56;48.37;99417.06;4470881;32;20376;-83
2022/09/05 04:34:44;;;;;;;7.85;3.28;;;;;;;20.60;48.28;99418.53;4469738;32;20104;-81
2022/09/05 04:37:10;;;;;;;8.25;3.00;;;;;;;20.70;48.07;99407.88;4390565;32;20189;-81
2022/09/05 04:39:36;;;;;;;7.25;2.75;;;;;;;20.80;47.83;99411.47;4379193;32;20141;-81
2022/09/05 04:42:04;;;;;;;7.68;3.17;;;;;;;20.92;47.63;99414.87;4391667;32;20118;-81
2022/09/05 04:44:33;;;;;;;9.13;3.20;;;;;;;20.94;47.71;99412.91;4379140;32;20129;-81
2022/09/05 04:47:07;;;;;;;8.80;3.15;;;;;;;21.06;47.32;99419.03;4366521;32;20086;-80
2022/09/05 04:49:38;;;;;;;7.87;3.20;;;;;;;21.04;47.54;99426.34;4379236;32;20172;-80
2022/09/05 04:52:36;;;;;;;8.35;3.17;;;;;;;21.12;47.52;99423.84;4379340;32;20106;-80
2022/09/05 04:55:12;;;;;;;8.38;3.20;;;;;;;21.27;47.61;99429.69;4391584;32;20180;-81
2022/09/05 04:57:56;;;;;;;7.47;2.95;;;;;;;21.37;47.80;99419.00;4386540;32;20090;-81
2022/09/05 05:00:38;;;;;;;9.20;3.30;;;;;;;21.47;48.26;99427.91;4406693;32;20537;-81
2022/09/05 05:03:12;;;;;;;8.75;3.20;;;;;;;21.52;48.31;99430.22;4381308;32;20106;-81
2022/09/05 05:05:47;;;;;;;6.93;2.90;;;;;;;21.66;48.56;99431.63;4406670;32;20139;-81
2022/09/05 05:08:19;;;;;;;8.40;2.92;;;;;;;21.71;48.79;99432.03;4406582;32;20117;-81
2022/09/05 05:10:51;;;;;;;9.15;3.03;;;;;;;21.82;48.83;99439.13;4406553;32;20640;-81
2022/09/05 05:13:25;;;;;;;9.48;3.42;;;;;;;21.89;48.83;99441.12;4436200;32;20181;-81
2022/09/05 05:16:09;;;;;;;9.98;3.42;;;;;;;22.00;48.75;99434.78;4484829;32;20096;-81
2022/09/05 05:18:49;;;;;;;9.00;3.55;;;;;;;22.13;48.14;99435.31;4484695;32;20384;-81
2022/09/05 05:21:18;;;;;;;9.77;3.45;;;;;;;22.24;48.16;99433.50;4485895;31;20153;-81
2022/09/05 05:23:51;;;;;;;8.45;3.58;;;;;;;22.26;48.28;99427.00;4484590;32;20532;-81
2022/09/05 05:26:47;;;;;;;9.07;3.58;;;;;;;22.40;48.03;99436.44;4484663;32;20101;-81
2022/09/05 05:29:50;;;;;;;7.80;3.30;;;;;;;22.45;48.12;99434.19;4484580;32;20088;-81
2022/09/05 05:32:27;;;;;;;10.68;3.15;;;;;;;22.58;47.73;99439.28;4391951;32;20090;-81
2022/09/05 05:35:00;;;;;;;12.05;4.20;;;;;;;22.65;47.43;99444.91;4378343;32;20114;-81
2022/09/05 05:37:41;;;;;;;10.15;3.35;;;;;;;22.71;47.05;99436.25;4378521;32;20313;-81
2022/09/05 05:40:10;;;;;;;8.98;3.40;;;;;;;22.84;46.48;99436.78;4392886;32;20086;-81
2022/09/05 05:42:39;;;;;;;10.05;3.67;;;;;;;22.89;46.17;99442.56;4395297;32;20102;-81
2022/09/05 05:45:14;;;;;;;11.20;3.35;;;;;;;23.01;45.73;99437.84;4408000;32;20113;-79
2022/09/05 05:47:45;;;;;;;10.48;3.78;;;;;;;23.04;45.94;99444.78;4407801;32;20893;-80
2022/09/05 05:50:39;;;;;;;9.77;3.72;;;;;;;23.14;45.25;99446.47;4393377;32;20098;-80
2022/09/05 05:53:25;;;;;;;8.68;3.53;;;;;;;23.25;44.88;99448.09;4335733;33;20088;-81
2022/09/05 05:56:20;;;;;;;8.57;3.28;;;;;;;23.34;44.65;99444.50;4348076;33;20365;-80
2022/09/05 05:58:48;;;;;;;9.50;3.15;;;;;;;23.36;44.58;99449.75;4318810;33;20130;-79
2022/09/05 06:01:28;;;;;;;9.00;3.60;;;;;;;23.33;44.54;99442.84;4318702;33;20108;-81
2022/09/05 06:04:02;;;;;;;10.63;3.37;;;;;;;23.45;43.77;99442.63;4318701;33;20092;-81
2022/09/05 06:06:43;;;;;;;7.37;2.97;;;;;;;23.55;43.35;99457.72;4318688;33;20123;-82
2022/09/05 06:09:45;;;;;;;9.20;3.25;;;;;;;23.70;42.48;99446.41;4341719;32;20182;-82
2022/09/05 06:12:23;;;;;;;8.18;3.15;;;;;;;23.74;42.14;99443.28;4377934;32;20121;-80
2022/09/05 06:15:13;;;;;;;8.27;3.12;;;;;;;23.68;42.32;99460.03;4377729;32;20091;-79
2022/09/05 06:18:16;;;;;;;8.82;3.12;;;;;;;23.84;41.58;99451.31;4377727;32;20099;-81
2022/09/05 06:20:59;;;;;;;8.13;3.42;;;;;;;23.97;41.52;99458.16;4378221;32;20209;-80
2022/09/05 06:23:43;;;;;;;8.23;3.33;;;;;;;23.89;42.31;99454.41;4377774;32;20094;-79
2022/09/05 06:26:15;;;;;;;8.68;3.20;;;;;;;23.98;42.56;99458.00;4377996;32;20110;-81
2022/09/05 06:28:52;;;;;;;9.27;3.30;;;;;;;24.10;41.98;99453.25;4377696;32;20157;-79
2022/09/05 06:31:17;;;;;;;8.55;3.42;;;;;;;24.19;41.43;99456.88;4422792;32;20446;-80
2022/09/05 06:33:51;;;;;;;6.78;3.10;;;;;;;24.28;41.61;99458.59;4423235;32;20125;-82
2022/09/05 06:36:29;;;;;;;12.10;3.65;;;;;;;24.33;42.24;99457.12;4452145;32;20097;-79
2022/09/05 06:39:01;;;;;;;10.32;3.90;;;;;;;24.31;42.54;99453.75;4456202;32;20124;-80
2022/09/05 06:42:02;;;;;;;9.00;3.53;;;;;;;24.47;42.42;99463.84;4456290;32;20120;-81
2022/09/05 06:45:05;;;;;;;9.20;3.60;;;;;;;24.51;42.71;99461.69;4442578;32;20543;-82
2022/09/05 06:47:33;;;;;;;10.88;3.75;;;;;;;24.67;41.51;99469.91;4454791;32;20089;-80
2022/09/05 06:50:18;;;;;;;10.10;3.20;;;;;;;24.60;42.05;99473.38;4455435;32;20101;-77
2022/09/05 06:53:19;;;;;;;8.65;3.50;;;;;;;24.62;41.88;99474.91;4454968;32;20100;-80
2022/09/05 06:56:06;;;;;;;9.50;3.75;;;;;;;24.59;42.51;99469.84;4453750;32;20481;-82
2022/09/05 06:58:37;;;;;;;11.68;3.70;;;;;;;24.79;42.13;99472.34;4470088;32;20131;-80
2022/09/05 07:01:05;;;;;;;9.60;3.50;;;;;;;24.64;42.42;99474.75;4482413;32;20104;-81
2022/09/05 07:03:52;;;;;;;9.63;3.53;;;;;;;24.55;41.97;99481.06;4479120;32;20116;-81
2022/09/05 07:06:51;;;;;;;9.45;3.60;;;;;;;24.50;42.19;99479.66;4475753;32;20096;-81
2022/09/05 07:09:19;;;;;;;10.10;3.72;;;;;;;24.32;42.79;99479.69;4476076;32;20555;-80
2022/09/05 07:11:58;;;;;;;10.00;3.58;;;;;;;24.33;42.60;99475.16;4479560;32;20089;-83
2022/09/05 07:14:27;;;;;;;9.10;3.83;;;;;;;24.37;42.69;99481.09;4482536;32;20100;-82
2022/09/05 07:16:57;;;;;;;7.82;3.15;;;;;;;23.71;43.95;99486.62;4477757;32;20119;-84
2022/09/05 07:19:29;;;;;;;8.60;3.50;;;;;;;23.93;44.08;99481.84;4477288;31;20141;-85
2022/09/05 07:22:23;;;;;;;9.35;3.60;;;;;;;24.24;43.78;99476.94;4473400;32;20447;-85
2022/09/05 07:24:49;;;;;;;9.27;3.50;;;;;;;24.39;42.62;99482.59;4469454;32;20101;-86
2022/09/05 07:27:39;;;;;;;9.18;3.35;;;;;;;24.52;42.45;99475.00;4469479;32;20088;-85
2022/09/05 07:30:05;;;;;;;11.43;3.72;;;;;;;24.32;42.30;99481.56;4470344;32;20089;-86
2022/09/05 07:32:38;;;;;;;10.40;3.60;;;;;;;24.71;42.22;99476.66;4468614;32;20116;-85
2022/09/05 07:35:05;;;;;;;9.30;3.50;;;;;;;24.73;41.83;99484.59;4471517;32;20100;-85
2022/09/05 07:37:37;;;;;;;8.83;3.43;;;;;;;24.47;42.44;99477.31;4470366;32;20120;-85
2022/09/05 07:40:10;;;;;;;10.10;3.10;;;;;;;24.69;41.91;99475.97;4470351;32;20115;-86
2022/09/05 07:43:22;;;;;;;8.55;3.17;;;;;;;24.85;41.37;99480.63;4457900;32;20134;-85
2022/09/05 07:46:09;;;;;;;8.85;3.40;;;;;;;24.96;41.02;99484.06;4471305;32;20156;-85
2022/09/05 07:48:38;;;;;;;11.30;3.28;;;;;;;25.09;39.84;99477.25;4471453;32;20115;-86
2022/09/05 07:51:06;;;;;;;8.38;3.25;;;;;;;25.07;40.52;99479.25;4471351;32;20085;-85
2022/09/05 07:53:35;;;;;;;10.23;3.30;;;;;;;24.95;40.09;99479.69;4470185;32;20139;-85
2022/09/05 07:56:03;;;;;;;8.77;3.30;;;;;;;24.57;40.87;99477.25;4456994;32;20113;-85
2022/09/05 07:58:48;;;;;;;8.45;3.20;;;;;;;24.67;40.37;99485.22;4484790;32;20114;-85
2022/09/05 08:01:16;;;;;;;10.10;3.70;;;;;;;24.83;40.83;99474.56;4485732;32;20080;-86
2022/09/05 08:03:42;;;;;;;9.43;3.80;;;;;;;25.07;40.70;99478.38;4486963;31;20364;-85
2022/09/05 08:06:16;;;;;;;9.95;3.80;;;;;;;24.64;41.65;99470.19;4487057;31;20120;-85
2022/09/05 08:09:11;;;;;;;10.15;3.62;;;;;;;24.78;41.52;99479.56;4485717;32;20088;-86
2022/09/05 08:11:36;;;;;;;10.05;3.40;;;;;;;24.88;41.53;99474.09;4478612;32;20100;-85
2022/09/05 08:14:06;;;;;;;8.48;3.35;;;;;;;25.00;41.42;99478.19;4486906;31;20152;-85
2022/09/05 08:16:33;;;;;;;10.07;3.60;;;;;;;25.27;40.30;99482.59;4485518;32;20403;-85
2022/09/05 08:19:20;;;;;;;;;;;;;;;25.33;40.32;99466.78;4487200;31;20152;-85
2022/09/05 08:21:48;;;;;;;10.25;3.10;;;;;;;25.43;39.83;99472.88;4485518;32;20034;-86
2022/09/05 08:24:32;;;;;;;10.20;3.83;;;;;;;25.26;41.13;99466.56;4487019;31;20160;-86
2022/09/05 08:27:14;;;;;;;8.05;3.42;;;;;;;25.44;40.05;99470.03;4485644;32;20108;-85
2022/09/05 08:29:43;;;;;;;9.82;3.95;;;;;;;24.89;40.35;99479.31;4486736;31;20088;-85
2022/09/05 08:32:09;;;;;;;12.23;3.45;;;;;;;25.01;40.56;99473.66;4486736;31;20482;-85
2022/09/05 08:34:50;;;;;;;9.25;3.47;;;;;;;25.25;40.54;99465.72;4485472;32;20157;-85
2022/09/05 08:37:18;;;;;;;8.98;3.30;;;;;;;24.92;40.41;99472.75;4485484;32;20100;-86
2022/09/05 08:39:46;;;;;;;10.95;3.83;;;;;;;25.24;40.34;99469.41;4485490;32;20084;-86
2022/09/05 08:42:28;;;;;;;9.65;3.30;;;;;;;25.35;40.59;99472.84;4485372;32;20088;-86
2022/09/05 08:45:05;;;;;;;8.25;3.40;;;;;;;25.58;40.22;99476.63;4486350;31;20482;-86
2022/09/05 08:47:57;;;;;;;9.27;3.47;;;;;;;25.41;39.52;99466.78;4486475;32;20119;-86
2022/09/05 08:50:28;;;;;;;9.23;3.70;;;;;;;25.46;39.97;99472.56;4485298;32;20198;-85
2022/09/05 08:53:24;;;;;;;8.38;3.30;;;;;;;24.81;41.23;99465.78;4486474;32;20137;-86
2022/09/05 08:56:27;;;;;;;8.50;3.50;;;;;;;25.07;41.04;99467.59;4486413;32;20096;-85
2022/09/05 08:59:07;;;;;;;7.82;3.30;;;;;;;25.51;40.13;99462.09;4486610;32;20147;-85
2022/09/05 09:01:37;;;;;;;9.43;3.50;;;;;;;25.72;39.23;99455.44;4486212;32;20206;-86
2022/09/05 09:04:28;;;;;;;9.90;3.60;;;;;;;25.66;39.79;99462.31;4485090;32;20084;-86
2022/09/05 09:07:15;;;;;;;8.48;3.67;;;;;;;25.83;39.16;99457.81;4486200;32;20085;-86
2022/09/05 09:09:45;;;;;;;9.32;3.78;;;;;;;25.65;38.72;99455.22;4486446;31;20130;-85
2022/09/05 09:12:32;;;;;;;8.05;3.62;;;;;;;25.54;38.76;99453.69;4484985;32;20099;-86
2022/09/05 09:15:00;;;;;;;8.52;3.67;;;;;;;25.69;38.48;99445.78;4487595;31;20133;-85
2022/09/05 09:17:40;;;;;;;7.80;3.40;;;;;;;25.95;38.53;99451.13;4488136;31;20089;-85
2022/09/05 09:20:14;;;;;;;12.40;4.70;;;;;;;25.80;38.88;99447.34;4486993;32;20105;-85
2022/09/05 09:22:41;;;;;;;10.60;3.92;;;;;;;25.96;38.47;99447.41;4488119;32;20144;-86
2022/09/05 09:25:17;;;;;;;9.67;3.83;;;;;;;25.96;38.32;99442.03;4488195;31;20076;-86
2022/09/05 09:28:04;;;;;;;10.05;3.90;;;;;;;25.88;38.96;99439.25;4486787;32;20191;-86
2022/09/05 09:30:31;;;;;;;9.15;3.80;;;;;;;25.88;39.17;99447.34;4488464;31;20107;-85
2022/09/05 09:33:02;;;;;;;10.18;3.70;;;;;;;26.21;38.21;99442.88;4488229;31;20120;-85
2022/09/05 09:35:53;;;;;;;8.63;3.45;;;;;;;26.29;38.00;99444.75;4488280;31;20072;-86
2022/09/05 09:38:28;;;;;;;10.30;4.18;;;;;;;26.44;37.45;99437.63;4487224;32;20100;-86
2022/09/05 09:40:53;;;;;;;8.65;3.90;;;;;;;25.39;39.46;99445.37;4487921;31;20111;-85
2022/09/05 09:43:29;;;;;;;9.50;3.78;;;;;;;25.70;38.64;99440.22;4487964;31;20100;-85
2022/09/05 09:46:08;;;;;;;10.43;4.07;;;;;;;25.88;38.22;99444.66;4486714;32;20198;-85
2022/09/05 09:48:59;;;;;;;9.10;3.60;;;;;;;26.41;36.86;99439.84;4488027;31;20451;-86
2022/09/05 09:51:34;;;;;;;11.05;3.92;;;;;;;26.52;36.96;99438.63;4486621;32;20093;-85
2022/09/05 09:54:15;;;;;;;9.45;3.85;;;;;;;26.41;37.49;99434.44;4487999;32;20143;-86
2022/09/05 09:57:07;;;;;;;9.73;4.00;;;;;;;26.41;37.65;99439.84;4486460;32;20107;-85
2022/09/05 09:59:50;;;;;;;8.48;3.58;;;;;;;26.57;37.27;99433.56;4486625;32;20157;-86
2022/09/05 10:02:51;;;;;;;9.82;3.97;;;;;;;26.63;37.04;99425.62;4488038;31;20464;-86
2022/09/05 10:05:35;;;;;;;9.68;3.50;;;;;;;25.69;38.05;99437.69;4487940;31;20084;-86
2022/09/05 10:08:06;;;;;;;9.80;3.42;;;;;;;26.36;37.70;99432.22;4488129;31;20064;-86
2022/09/05 10:10:37;;;;;;;9.95;3.58;;;;;;;26.34;37.38;99428.00;4487800;32;20101;-86
2022/09/05 10:13:36;;;;;;;10.50;3.90;;;;;;;26.64;37.63;99431.91;4487748;32;20110;-86
2022/09/05 10:16:26;;;;;;;10.10;3.92;;;;;;;26.88;36.56;99426.41;4487775;32;20136;-86
2022/09/05 10:19:39;;;;;;;9.95;3.65;;;;;;;27.08;35.96;99420.59;4487587;32;20595;-86
2022/09/05 10:22:30;;;;;;;8.73;3.80;;;;;;;27.28;35.28;99425.66;4423527;32;20161;-86
2022/09/05 10:25:31;;;;;;;9.57;3.20;;;;;;;27.53;35.36;99427.22;4410509;32;20101;-86
2022/09/05 10:28:24;;;;;;;9.70;3.87;;;;;;;27.56;34.75;99418.72;4420839;32;20081;-85
2022/09/05 10:31:08;;;;;;;10.73;3.40;;;;;;;27.72;34.17;99411.53;4410477;32;20078;-85
2022/09/05 10:33:55;;;;;;;8.98;4.03;;;;;;;27.84;33.68;99415.53;4423505;32;20114;-85
2022/09/05 10:36:27;;;;;;;10.50;4.00;;;;;;;28.03;33.98;99411.53;4423250;32;20120;-86
2022/09/05 10:39:06;;;;;;;16.85;6.40;;;;;;;28.16;34.18;99411.75;4410399;32;20121;-86
2022/09/05 10:41:48;;;;;;;12.57;4.43;;;;;;;28.28;33.79;99411.28;4423263;32;20140;-85
2022/09/05 10:44:17;;;;;;;8.57;3.30;;;;;;;28.35;33.46;99402.25;4423279;32;20170;-86
2022/09/05 10:46:50;;;;;;;8.70;3.35;;;;;;;28.46;33.06;99402.84;4410474;32;20374;-86
2022/09/05 10:49:19;;;;;;;9.23;3.90;;;;;;;28.52;33.17;99391.31;4423101;32;20109;-86
2022/09/05 10:51:47;;;;;;;10.90;3.55;;;;;;;28.60;33.06;99396.63;4412598;32;20077;-85
2022/09/05 10:54:49;;;;;;;8.63;3.50;;;;;;;28.64;33.30;99395.22;4487568;31;20120;-85
2022/09/05 10:57:14;;;;;;;9.40;3.35;;;;;;;28.74;32.19;99384.97;4487280;31;20110;-85
2022/09/05 11:00:03;;;;;;;9.18;3.67;;;;;;;28.68;32.28;99385.69;4487404;32;20108;-85
2022/09/05 11:02:30;;;;;;;8.82;3.87;;;;;;;28.77;32.22;99384.56;4486263;32;20099;-85
2022/09/05 11:05:23;;;;;;;9.27;3.30;;;;;;;28.71;32.27;99384.50;4486185;32;20100;-85
2022/09/05 11:08:07;;;;;;;7.50;3.53;;;;;;;28.72;32.21;99378.03;4487429;31;20172;-85
2022/09/05 11:10:36;;;;;;;8.88;3.60;;;;;;;28.72;32.56;99378.03;4486095;32;20109;-85
2022/09/05 11:13:09;;;;;;;9.77;3.80;;;;;;;28.63;32.26;99382.72;4487340;31;20104;-85
2022/09/05 11:15:46;;;;;;;9.63;3.60;;;;;;;28.62;32.43;99383.72;4487421;31;20138;-85
2022/09/05 11:18:22;;;;;;;8.07;3.75;;;;;;;28.60;32.50;99383.06;4487382;32;20093;-85
2022/09/05 11:21:07;;;;;;;10.30;3.28;;;;;;;28.62;32.34;99375.59;4486220;32;20103;-85
2022/09/05 11:23:44;;;;;;;9.35;3.42;;;;;;;28.49;32.47;99372.66;4473085;32;20141;-85
2022/09/05 11:26:29;;;;;;;7.70;3.08;;;;;;;28.70;32.63;99366.53;4487249;31;20094;-85
2022/09/05 11:29:02;;;;;;;9.10;3.60;;;;;;;28.66;32.26;99370.66;4485941;32;20108;-85
2022/09/05 11:31:53;;;;;;;8.30;3.37;;;;;;;28.75;32.53;99372.25;4486041;32;20073;-85
2022/09/05 11:34:48;;;;;;;7.82;3.20;;;;;;;28.82;32.08;99368.59;4478470;32;20080;-85
2022/09/05 11:37:30;;;;;;;8.88;3.62;;;;;;;28.89;32.13;99365.12;4480820;32;20096;-85
2022/09/05 11:40:34;;;;;;;7.93;3.20;;;;;;;28.86;32.08;99368.22;4487293;31;20114;-86
2022/09/05 11:43:11;;;;;;;8.05;3.53;;;;;;;28.82;32.32;99365.06;4422664;32;20565;-85
2022/09/05 11:45:48;;;;;;;11.63;4.10;;;;;;;27.84;34.10;99377.63;4422864;32;20185;-85
2022/09/05 11:48:32;;;;;;;7.87;3.40;;;;;;;28.03;32.86;99370.91;4422752;32;20436;-85
2022/09/05 11:51:32;;;;;;;8.05;3.60;;;;;;;28.39;32.59;99360.22;4422789;32;20109;-85
2022/09/05 11:54:19;;;;;;;8.68;3.25;;;;;;;28.44;33.05;99360.50;4377201;32;20110;-85
2022/09/05 11:57:00;;;;;;;10.82;3.40;;;;;;;28.59;32.49;99363.25;4377058;32;20162;-85
2022/09/05 11:59:57;;;;;;;11.32;3.50;;;;;;;28.61;32.55;99360.37;4377311;32;20576;-85
2022/09/05 12:02:31;;;;;;;7.87;3.40;;;;;;;28.63;32.81;99361.03;4377212;32;20196;-85
2022/09/05 12:05:06;;;;;;;9.43;3.60;;;;;;;28.70;32.69;99361.09;4377283;32;20117;-85
2022/09/05 12:07:32;;;;;;;9.23;3.37;;;;;;;28.58;32.39;99358.03;4377191;32;20082;-86
2022/09/05 12:10:03;;;;;;;9.18;3.58;;;;;;;28.62;32.47;99360.16;4377120;32;20173;-86
2022/09/05 12:12:56;;;;;;;7.82;3.12;;;;;;;28.55;32.57;99361.09;4377155;32;20165;-85
2022/09/05 12:15:27;;;;;;;8.00;3.37;;;;;;;28.16;34.18;99357.59;4332369;33;20540;-86
2022/09/05 12:18:14;;;;;;;8.65;3.50;;;;;;;28.49;33.42;99359.09;4332397;33;20119;-85
2022/09/05 12:21:01;;;;;;;9.38;3.40;;;;;;;28.69;32.43;99345.87;4387446;32;20125;-85
2022/09/05 12:23:32;;;;;;;8.60;3.70;;;;;;;28.65;32.70;99342.72;4379579;32;20218;-86
2022/09/05 12:26:18;;;;;;;8.13;3.30;;;;;;;28.71;32.79;99339.25;4392243;32;20153;-85
2022/09/05 12:28:47;;;;;;;8.32;3.28;;;;;;;28.78;33.22;99348.31;4391936;32;20086;-86
2022/09/05 12:31:18;;;;;;;8.80;3.33;;;;;;;28.85;33.07;99344.84;4419073;32;20105;-85
2022/09/05 12:33:46;;;;;;;8.30;3.50;;;;;;;28.83;32.38;99340.44;4424927;32;20555;-85
2022/09/05 12:36:42;;;;;;;8.80;3.47;;;;;;;28.83;33.53;99342.31;4424799;32;20123;-85